Time;durP1;ratioP1;P1;durP2;ratioP2;P2;SDS_P1;SDS_P2;PMS_P1;PMS_P2;Temp;Humidity;BMP_temperature;BMP_pressure;BME280_temperature;BME280_humidity;BME280_pressure;Samples;Min_cycle;Max_cycle;Signal;HPM_P1;HPM_P2
2023/08/31 00:01:48;;;;;;;1.70;0.90;;;;;;;24.71;42.38;98837.84;4970265;28;20572;-87
2023/08/31 00:04:14;;;;;;;0.82;0.65;;;;;;;24.90;42.74;98874.84;4957132;28;20512;-87
2023/08/31 00:06:45;;;;;;;2.10;0.85;;;;;;;24.79;42.74;98873.97;4954562;28;20519;-87
2023/08/31 00:09:11;;;;;;;0.68;0.40;;;;;;;24.77;42.42;98854.34;4971716;28;20027;-89
2023/08/31 00:11:37;;;;;;;2.30;0.93;;;;;;;24.82;41.68;98860.22;4973183;28;20046;-87
2023/08/31 00:14:03;;;;;;;1.75;1.25;;;;;;;25.00;41.76;98864.97;4971974;28;20031;-87
2023/08/31 00:16:29;;;;;;;1.65;0.82;;;;;;;24.92;41.49;98868.34;4971813;28;20046;-87
2023/08/31 00:18:56;;;;;;;1.73;1.08;;;;;;;25.18;41.42;98892.16;4971753;28;20031;-87
2023/08/31 00:21:22;;;;;;;0.70;0.50;;;;;;;25.09;41.58;98866.00;4973425;28;20034;-89
2023/08/31 00:23:48;;;;;;;2.10;0.95;;;;;;;25.13;41.21;98864.72;4971726;28;20068;-88
2023/08/31 00:26:14;;;;;;;1.50;0.98;;;;;;;24.95;41.38;98851.03;4978190;28;20113;-88
2023/08/31 00:28:42;;;;;;;0.52;0.52;;;;;;;25.21;41.38;98878.41;4991300;28;20116;-88
2023/08/31 00:31:08;;;;;;;1.65;1.15;;;;;;;25.05;41.72;98878.88;4973845;28;20526;-87
2023/08/31 00:33:34;;;;;;;2.47;1.38;;;;;;;24.96;41.47;98864.38;4975795;28;20169;-89
2023/08/31 00:36:03;;;;;;;2.95;1.02;;;;;;;24.79;41.42;98840.72;4972181;28;20107;-88
2023/08/31 00:38:29;;;;;;;0.88;0.65;;;;;;;24.91;41.73;98880.09;4971407;28;20557;-88
2023/08/31 00:40:55;;;;;;;1.80;0.80;;;;;;;24.87;41.85;98891.28;4971166;28;20061;-87
2023/08/31 00:43:20;;;;;;;1.77;1.17;;;;;;;24.84;41.89;98877.09;4959972;28;20136;-88
2023/08/31 00:45:49;;;;;;;1.58;0.60;;;;;;;24.95;41.99;98902.28;4990806;28;20443;-87
2023/08/31 00:48:18;;;;;;;2.20;1.15;;;;;;;25.03;41.93;98903.31;4989023;28;20069;-88
2023/08/31 00:50:47;;;;;;;4.38;0.85;;;;;;;24.82;42.08;98881.78;4991343;28;20499;-88
2023/08/31 00:53:15;;;;;;;1.50;0.95;;;;;;;24.84;42.00;98890.59;4990596;28;20093;-88
2023/08/31 00:55:40;;;;;;;0.60;0.60;;;;;;;24.78;42.23;98915.38;4989795;28;20081;-88
2023/08/31 00:58:07;;;;;;;1.92;1.25;;;;;;;24.63;41.99;98869.03;4987316;28;20457;-89
2023/08/31 01:00:54;;;;;;;4.45;1.52;;;;;;;25.01;41.98;98916.09;4987715;28;20140;-88
2023/08/31 01:03:19;;;;;;;2.83;1.58;;;;;;;25.01;41.64;98932.28;4971756;28;20055;-88
2023/08/31 01:06:02;;;;;;;0.52;0.50;;;;;;;25.16;41.55;98931.91;4971177;28;20560;-89
2023/08/31 01:08:49;;;;;;;1.10;0.65;;;;;;;25.06;41.55;98931.88;4955261;28;20436;-88
2023/08/31 01:11:42;;;;;;;6.03;0.73;;;;;;;24.92;41.28;98922.28;4976528;28;20034;-88
2023/08/31 01:14:13;;;;;;;1.35;0.95;;;;;;;24.78;41.53;98888.41;4990635;28;20038;-88
2023/08/31 01:16:43;;;;;;;1.15;0.82;;;;;;;24.93;41.97;98933.91;4989284;28;20038;-86
2023/08/31 01:19:31;;;;;;;3.70;1.45;;;;;;;25.00;41.64;98933.25;4988745;28;20030;-89
2023/08/31 01:22:03;;;;;;;3.17;1.30;;;;;;;24.96;42.12;98923.72;4989432;28;20121;-89
2023/08/31 01:24:31;;;;;;;2.47;1.20;;;;;;;24.73;41.74;98908.66;4989592;28;20133;-88
2023/08/31 01:26:57;;;;;;;1.35;0.80;;;;;;;24.91;41.62;98935.91;4988069;28;20088;-87
2023/08/31 01:29:22;;;;;;;0.82;0.52;;;;;;;24.71;41.53;98907.97;4988548;28;20452;-88
2023/08/31 01:31:48;;;;;;;0.43;0.32;;;;;;;24.89;41.42;98929.78;4989683;28;20446;-88
2023/08/31 01:34:34;;;;;;;1.27;0.77;;;;;;;25.22;41.33;98969.16;4989701;28;20026;-88
2023/08/31 01:37:08;;;;;;;0.95;0.55;;;;;;;24.89;41.72;98933.34;4989649;28;20085;-87
2023/08/31 01:39:41;;;;;;;1.27;0.70;;;;;;;24.76;41.57;98920.06;4989191;28;20477;-88
2023/08/31 01:42:13;;;;;;;2.40;1.00;;;;;;;24.93;42.15;98956.38;4990043;28;20030;-87
2023/08/31 01:44:39;;;;;;;1.08;0.65;;;;;;;25.06;42.71;98966.94;4989897;28;20101;-88
2023/08/31 01:47:06;;;;;;;0.68;0.50;;;;;;;24.71;42.70;98924.97;4975407;28;20030;-88
2023/08/31 01:49:38;;;;;;;1.75;0.85;;;;;;;24.70;43.35;98944.88;4975910;28;20405;-88
2023/08/31 01:52:04;;;;;;;3.08;2.08;;;;;;;24.36;44.74;98953.09;4993232;28;20054;-88
2023/08/31 01:54:29;;;;;;;0.82;0.43;;;;;;;24.23;45.98;98949.69;4993013;28;20495;-87
2023/08/31 01:56:55;;;;;;;1.27;0.82;;;;;;;24.09;47.06;98951.69;4993633;28;20031;-87
2023/08/31 02:02:43;;;;;;;1.10;0.90;;;;;;;23.95;47.78;98954.69;4993495;28;20165;-88
2023/08/31 02:05:09;;;;;;;2.42;0.80;;;;;;;23.85;48.27;98933.03;4992459;28;20121;-87
2023/08/31 02:07:34;;;;;;;2.58;1.10;;;;;;;23.94;48.79;98961.91;4993022;28;20027;-88
2023/08/31 02:10:00;;;;;;;2.58;1.33;;;;;;;23.89;48.75;98966.81;4992865;28;20038;-88
2023/08/31 02:12:25;;;;;;;0.93;0.63;;;;;;;23.88;48.61;98967.81;4974546;28;20035;-88
2023/08/31 02:14:51;;;;;;;1.40;0.90;;;;;;;23.54;49.48;98950.78;4949270;28;1273485;-87
2023/08/31 02:17:16;;;;;;;1.75;1.08;;;;;;;23.62;49.58;98955.56;4993664;28;20400;-88
2023/08/31 02:19:42;;;;;;;1.35;0.77;;;;;;;23.41;49.71;98946.41;4993455;28;20453;-87
2023/08/31 02:22:08;;;;;;;3.85;0.77;;;;;;;23.48;47.84;98949.47;4993655;28;20069;-89
2023/08/31 02:24:33;;;;;;;1.23;0.80;;;;;;;23.45;48.44;98959.59;4994041;28;20058;-87
2023/08/31 02:26:59;;;;;;;1.17;0.80;;;;;;;23.36;48.67;98964.75;4993968;28;20035;-88
2023/08/31 02:29:24;;;;;;;1.05;0.70;;;;;;;23.35;48.91;98956.81;4993379;28;20556;-87
2023/08/31 02:31:50;;;;;;;4.32;1.20;;;;;;;23.43;49.20;98983.94;4993165;28;20038;-88
2023/08/31 02:34:15;;;;;;;0.93;0.85;;;;;;;23.27;49.15;98972.72;4993156;28;20061;-87
2023/08/31 02:36:41;;;;;;;1.77;1.10;;;;;;;23.14;48.74;98978.19;4993523;28;20034;-87
2023/08/31 02:39:06;;;;;;;1.17;0.70;;;;;;;23.22;49.07;98991.91;4992672;28;20043;-87
2023/08/31 02:41:32;;;;;;;1.95;1.30;;;;;;;23.10;49.92;98987.47;4993222;28;20034;-88
2023/08/31 02:43:57;;;;;;;0.90;0.73;;;;;;;23.12;50.66;98991.75;4992347;28;20037;-88
2023/08/31 02:46:23;;;;;;;3.15;0.75;;;;;;;22.89;50.93;98950.47;4975485;28;20031;-89
2023/08/31 02:48:48;;;;;;;1.10;0.70;;;;;;;22.87;51.72;98961.34;4982889;28;20486;-87
2023/08/31 02:51:14;;;;;;;1.38;1.10;;;;;;;22.95;52.19;98978.72;4973476;28;20030;-88
2023/08/31 02:53:39;;;;;;;2.72;0.98;;;;;;;22.79;52.45;98961.09;4973263;28;20465;-88
2023/08/31 02:56:05;;;;;;;1.90;1.23;;;;;;;22.94;53.40;98977.88;4986248;28;20565;-88
2023/08/31 02:58:31;;;;;;;1.88;0.90;;;;;;;22.91;51.95;98996.94;4973076;28;20062;-88
2023/08/31 03:01:11;;;;;;;3.30;1.20;;;;;;;22.89;50.92;98980.94;4972933;28;20026;-88
2023/08/31 03:03:40;;;;;;;7.85;1.98;;;;;;;22.81;49.52;98977.13;4973553;28;20525;-86
2023/08/31 03:06:09;;;;;;;2.45;1.55;;;;;;;22.91;50.18;99002.31;4985935;28;20038;-88
2023/08/31 03:08:36;;;;;;;2.10;0.98;;;;;;;22.98;47.99;99013.44;4992483;28;20034;-88
2023/08/31 03:11:05;;;;;;;1.42;0.80;;;;;;;23.14;49.84;99032.84;4992036;28;20031;-87
2023/08/31 03:13:33;;;;;;;1.55;0.60;;;;;;;23.08;49.73;99038.69;5001737;28;20054;-88
2023/08/31 03:16:00;;;;;;;1.63;0.80;;;;;;;22.95;48.09;99003.78;5001960;28;20046;-85
2023/08/31 03:18:26;;;;;;;1.42;0.90;;;;;;;23.06;47.80;99003.81;4988983;28;20035;-90
2023/08/31 03:20:51;;;;;;;0.55;0.38;;;;;;;23.20;47.02;99009.97;4996511;28;20134;-87
2023/08/31 03:23:17;;;;;;;1.95;1.30;;;;;;;23.35;46.88;99014.16;4998052;28;20034;-96
2023/08/31 03:25:43;;;;;;;1.60;0.90;;;;;;;23.43;47.50;99021.63;4980250;28;20030;-94
2023/08/31 03:28:17;;;;;;;1.65;1.00;;;;;;;23.37;46.19;98998.75;4980981;28;20030;-96
2023/08/31 03:30:45;;;;;;;2.45;1.00;;;;;;;23.22;46.72;98978.44;4991131;28;20054;-90
2023/08/31 03:33:11;;;;;;;2.17;1.42;;;;;;;23.34;46.62;99009.78;4999499;28;20133;-90
2023/08/31 03:35:36;;;;;;;3.25;0.60;;;;;;;23.57;47.18;99034.84;4992663;28;20216;-91
2023/08/31 03:38:02;;;;;;;0.57;0.47;;;;;;;23.59;47.10;99026.66;4993255;28;20027;-91
2023/08/31 03:40:35;;;;;;;0.65;0.60;;;;;;;23.28;47.30;98994.09;4976362;28;20466;-90
2023/08/31 03:43:00;;;;;;;0.68;0.57;;;;;;;23.28;46.33;98985.16;4992181;28;20022;-91
2023/08/31 03:46:08;;;;;;;2.25;0.80;;;;;;;23.52;47.31;99039.72;4993214;28;20085;-92
2023/08/31 03:51:56;;;;;;;1.40;0.77;;;;;;;23.47;49.54;99035.72;4992614;28;20057;-95
2023/08/31 03:54:21;;;;;;;5.15;1.17;;;;;;;23.28;49.95;99047.03;4975060;28;20030;-90
2023/08/31 03:56:46;;;;;;;2.17;0.93;;;;;;;23.38;49.77;99043.50;4997136;28;20077;-96
2023/08/31 03:59:12;;;;;;;2.92;1.08;;;;;;;23.23;49.94;99066.22;4984436;28;20039;-95
2023/08/31 04:01:37;;;;;;;1.88;1.15;;;;;;;23.10;50.76;99079.78;4955485;28;20035;-95
2023/08/31 04:04:04;;;;;;;1.75;1.05;;;;;;;23.16;50.81;99078.47;4974288;28;20440;-95
2023/08/31 04:06:29;;;;;;;2.80;1.67;;;;;;;22.92;50.02;99073.94;4959095;28;20116;-92
2023/08/31 04:08:55;;;;;;;2.58;1.50;;;;;;;22.71;49.98;99039.66;4961353;28;20097;-92
2023/08/31 04:11:20;;;;;;;2.97;2.03;;;;;;;22.91;50.59;99074.06;4983179;28;20034;-96
2023/08/31 04:13:46;;;;;;;4.45;2.97;;;;;;;22.84;49.50;99074.50;4977836;28;20132;-94
2023/08/31 04:16:11;;;;;;;4.93;3.60;;;;;;;22.69;49.42;99056.84;4968454;28;20458;-92
2023/08/31 04:18:36;;;;;;;3.75;2.72;;;;;;;22.75;48.98;99060.91;4978440;28;20155;-95
2023/08/31 04:21:03;;;;;;;4.43;3.17;;;;;;;22.72;49.85;99072.75;4967022;28;20037;-93
2023/08/31 04:23:29;;;;;;;7.80;1.73;;;;;;;22.88;49.87;99097.50;4973753;28;20061;-95
2023/08/31 04:25:54;;;;;;;3.42;2.67;;;;;;;22.98;51.03;99107.56;4991714;28;20049;-96
2023/08/31 04:28:21;;;;;;;4.03;3.47;;;;;;;23.01;50.12;99097.44;4998939;28;20031;-96
2023/08/31 04:30:47;;;;;;;4.20;2.42;;;;;;;23.03;51.69;99113.44;5074281;23;20058;-96
2023/08/31 04:52:30;;;;;;;7.72;2.47;;;;;;;22.57;51.41;99042.53;4995985;28;20050;-90
2023/08/31 04:55:03;;;;;;;8.95;4.20;;;;;;;22.89;52.63;99074.16;5050448;23;20042;-90
2023/08/31 04:57:29;;;;;;;7.15;3.63;;;;;;;22.83;51.85;99056.69;5428798;23;20059;-93
2023/08/31 04:59:55;;;;;;;6.53;3.47;;;;;;;23.19;51.92;99119.44;4989253;28;20135;-96
2023/08/31 05:02:21;;;;;;;3.60;2.53;;;;;;;23.26;51.67;99111.72;5214178;23;20051;-96
2023/08/31 05:04:48;;;;;;;4.70;3.10;;;;;;;23.55;50.85;99127.47;4970926;23;20457;-92
2023/08/31 05:07:13;;;;;;;6.65;3.53;;;;;;;23.59;49.47;99107.41;4956402;28;20039;-93
2023/08/31 05:09:38;;;;;;;6.13;2.85;;;;;;;23.69;49.66;99104.84;4994414;28;20084;-93
2023/08/31 05:12:04;;;;;;;5.65;2.75;;;;;;;23.85;49.12;99123.38;4978838;28;20018;-91
2023/08/31 05:14:30;;;;;;;2.88;2.25;;;;;;;24.14;48.25;99142.59;4983008;28;20026;-96
2023/08/31 05:16:56;;;;;;;3.58;1.52;;;;;;;24.31;47.29;99134.03;4974315;28;20090;-96
2023/08/31 05:19:21;;;;;;;1.13;1.02;;;;;;;24.54;47.09;99141.22;4969104;28;20062;-95
2023/08/31 05:21:47;;;;;;;7.22;1.48;;;;;;;24.77;46.59;99150.13;4970333;28;20049;-96
2023/08/31 05:24:13;;;;;;;4.25;1.65;;;;;;;24.93;46.56;99133.53;4990033;28;20128;-96
2023/08/31 05:26:39;;;;;;;2.88;1.25;;;;;;;24.53;46.45;99050.53;5021064;23;20049;-91
2023/08/31 05:29:05;;;;;;;4.72;2.17;;;;;;;24.77;46.20;99056.59;5287903;23;20059;-93
2023/08/31 05:31:31;;;;;;;3.17;2.28;;;;;;;24.82;47.01;99050.81;5249087;23;20049;-95
2023/08/31 05:34:02;;;;;;;3.85;1.90;;;;;;;24.89;46.67;99070.03;5128581;23;20110;-92
2023/08/31 05:36:27;;;;;;;6.57;2.75;;;;;;;25.09;45.68;99062.97;5031525;23;20055;-92
2023/08/31 05:38:53;;;;;;;3.53;1.55;;;;;;;25.52;44.07;99106.03;5015062;23;20054;-92
2023/08/31 05:41:18;;;;;;;1.13;0.52;;;;;;;25.70;43.04;99137.81;4961654;28;20031;-94
2023/08/31 05:43:45;;;;;;;2.63;0.80;;;;;;;25.70;43.84;99140.50;4973484;28;20397;-95
2023/08/31 05:46:10;;;;;;;1.33;0.95;;;;;;;26.15;43.21;99140.22;4988243;28;20517;-95
2023/08/31 05:48:36;;;;;;;0.65;0.43;;;;;;;26.44;42.16;99147.56;4968081;28;20076;-92
2023/08/31 05:51:03;;;;;;;0.50;0.50;;;;;;;26.59;41.47;99131.81;4992213;28;20463;-95
2023/08/31 05:53:29;;;;;;;4.70;1.55;;;;;;;26.77;41.24;99146.38;4990332;28;20033;-92
2023/08/31 05:56:03;;;;;;;2.75;1.10;;;;;;;26.86;40.91;99151.94;4993482;28;20042;-96
2023/08/31 05:58:32;;;;;;;1.80;0.90;;;;;;;26.79;41.78;99148.94;4972815;28;20057;-94
2023/08/31 06:00:58;;;;;;;4.63;0.82;;;;;;;27.16;41.34;99154.53;4960501;28;20042;-89
2023/08/31 06:03:23;;;;;;;2.35;0.95;;;;;;;26.75;39.89;99117.75;4981295;28;20053;-91
2023/08/31 06:05:50;;;;;;;0.68;0.45;;;;;;;27.05;40.23;99140.25;4977008;28;20042;-93
2023/08/31 06:08:15;;;;;;;1.73;1.08;;;;;;;27.39;41.09;99153.41;4979811;28;20042;-95
2023/08/31 06:10:45;;;;;;;2.38;1.40;;;;;;;27.34;40.11;99129.47;4978825;28;20031;-96
2023/08/31 06:13:10;;;;;;;0.75;0.73;;;;;;;27.36;40.56;99145.56;4990110;28;20041;-95
2023/08/31 06:15:39;;;;;;;1.30;0.95;;;;;;;27.14;39.63;99071.75;5277089;23;20025;-96
2023/08/31 06:18:05;;;;;;;1.13;0.95;;;;;;;27.43;38.34;99111.50;5067536;23;20059;-96
2023/08/31 06:23:09;;;;;;;;;;;;;;;28.10;38.09;99171.09;5079620;23;20065;-95
2023/08/31 06:25:35;;;;;;;1.63;0.75;;;;;;;27.56;37.44;99111.19;5009859;28;20405;-93
2023/08/31 06:28:02;;;;;;;1.17;0.55;;;;;;;27.80;37.36;99173.00;5008324;28;20042;-94
2023/08/31 06:30:31;;;;;;;1.15;0.75;;;;;;;27.71;37.30;99125.13;4990172;28;20097;-96
2023/08/31 06:32:57;;;;;;;0.93;0.50;;;;;;;28.10;36.99;99138.56;4993155;28;20057;-95
2023/08/31 06:35:23;;;;;;;1.15;0.50;;;;;;;28.39;36.82;99152.84;5258977;23;20029;-94
2023/08/31 06:37:50;;;;;;;1.02;0.77;;;;;;;28.42;36.05;99096.59;5113389;23;20046;-94
2023/08/31 06:40:19;;;;;;;1.85;0.80;;;;;;;28.73;36.08;99098.00;4993962;28;20077;-96
2023/08/31 06:42:44;;;;;;;2.08;0.75;;;;;;;28.50;35.02;99100.25;4988879;28;20100;-96
2023/08/31 06:45:10;;;;;;;1.80;0.95;;;;;;;28.44;35.00;99095.44;4989996;28;20497;-96
2023/08/31 06:47:35;;;;;;;0.90;0.60;;;;;;;28.20;35.82;99101.44;4989444;28;20038;-96
2023/08/31 06:50:04;;;;;;;2.17;1.60;;;;;;;28.50;35.47;99115.66;4990362;28;20034;-90
2023/08/31 06:52:30;;;;;;;2.75;1.17;;;;;;;29.04;34.81;99148.31;4987017;28;20026;-95
2023/08/31 06:54:56;;;;;;;1.38;0.70;;;;;;;29.18;35.54;99172.22;4983450;28;20041;-96
2023/08/31 06:57:25;;;;;;;2.03;0.52;;;;;;;28.94;34.32;99142.97;4997209;28;20108;-93
2023/08/31 06:59:51;;;;;;;0.95;0.55;;;;;;;28.48;34.95;99085.97;5001508;28;20516;-96
2023/08/31 07:02:16;;;;;;;2.53;0.88;;;;;;;28.84;35.07;99112.31;4981634;28;20030;-96
2023/08/31 07:04:43;;;;;;;0.50;0.43;;;;;;;28.81;34.43;99107.22;4999578;28;20030;-96
2023/08/31 07:09:36;;;;;;;1.80;0.68;;;;;;;29.26;33.52;99157.91;4977756;28;20065;-96
2023/08/31 07:12:02;;;;;;;4.07;1.42;;;;;;;29.75;33.74;99169.16;4961439;28;20081;-95
2023/08/31 07:14:27;;;;;;;1.25;0.77;;;;;;;29.59;33.85;99171.75;4964674;28;20035;-96
2023/08/31 07:16:53;;;;;;;4.15;1.17;;;;;;;29.91;34.00;99176.59;4981968;28;20031;-95
2023/08/31 07:19:18;;;;;;;0.85;0.80;;;;;;;29.89;33.03;99180.47;4962736;28;20038;-96
2023/08/31 07:21:44;;;;;;;1.90;0.93;;;;;;;30.00;33.93;99163.91;4961528;28;20034;-95
2023/08/31 07:24:10;;;;;;;0.30;0.30;;;;;;;30.08;32.06;99152.22;4964981;28;20030;-96
2023/08/31 07:26:35;;;;;;;1.23;0.80;;;;;;;30.24;31.89;99162.31;4959027;28;20030;-96
2023/08/31 07:29:04;;;;;;;1.50;0.63;;;;;;;30.16;33.41;99174.03;4961597;28;20047;-95
2023/08/31 07:31:31;;;;;;;0.52;0.30;;;;;;;30.36;32.88;99166.47;4958238;28;20035;-94
2023/08/31 07:33:56;;;;;;;0.88;0.70;;;;;;;30.35;32.88;99143.88;4956303;28;20116;-90
2023/08/31 07:36:22;;;;;;;1.17;0.65;;;;;;;30.43;32.70;99145.78;4955280;28;20035;-90
2023/08/31 07:38:47;;;;;;;1.08;0.70;;;;;;;30.58;32.33;99175.09;4958465;28;20473;-92
2023/08/31 07:41:13;;;;;;;0.98;0.73;;;;;;;30.31;31.81;99139.75;4955381;28;20038;-93
2023/08/31 07:43:38;;;;;;;1.35;0.80;;;;;;;30.36;31.93;99133.81;4956049;28;20026;-93
2023/08/31 07:46:03;;;;;;;1.65;0.93;;;;;;;30.53;32.16;99157.38;4973493;28;20035;-94
2023/08/31 07:48:29;;;;;;;6.65;3.33;;;;;;;30.64;31.55;99145.34;4954681;28;20117;-95
2023/08/31 07:50:55;;;;;;;5.88;3.00;;;;;;;30.55;32.94;99121.84;4956172;28;20035;-91
2023/08/31 07:53:20;;;;;;;8.43;3.47;;;;;;;30.92;31.86;99131.44;4972199;28;20505;-92
2023/08/31 07:55:56;;;;;;;1.30;0.77;;;;;;;31.00;30.80;99164.19;4973396;28;20030;-95
2023/08/31 07:58:26;;;;;;;3.65;1.40;;;;;;;31.00;31.68;99172.34;4972892;28;20039;-92
2023/08/31 08:00:55;;;;;;;3.10;1.73;;;;;;;31.19;30.75;99167.63;4972569;28;20174;-96
2023/08/31 08:03:22;;;;;;;2.05;1.02;;;;;;;31.42;30.08;99163.19;4954665;28;20121;-89
2023/08/31 08:05:47;;;;;;;2.38;0.90;;;;;;;31.78;30.41;99170.19;4963713;28;20509;-91
2023/08/31 08:08:13;;;;;;;1.67;0.98;;;;;;;31.19;30.82;99115.88;4933708;28;20051;-88
2023/08/31 08:10:38;;;;;;;1.27;0.60;;;;;;;31.18;30.25;99139.50;4959305;28;20589;-89
2023/08/31 08:13:04;;;;;;;4.63;1.83;;;;;;;31.34;31.09;99144.13;4965533;28;20548;-88
2023/08/31 08:15:30;;;;;;;3.17;1.33;;;;;;;31.48;31.05;99148.03;4971106;28;20022;-89
2023/08/31 08:17:57;;;;;;;4.28;2.30;;;;;;;31.47;31.23;99156.38;4971189;28;20201;-93
2023/08/31 08:20:23;;;;;;;2.00;1.13;;;;;;;31.50;30.22;99156.03;4971151;28;20034;-89
2023/08/31 08:22:52;;;;;;;2.42;0.70;;;;;;;31.46;31.08;99125.53;4971214;28;20026;-89
2023/08/31 08:25:20;;;;;;;1.95;1.13;;;;;;;31.88;30.74;99151.72;4970766;28;20027;-89
2023/08/31 08:27:46;;;;;;;0.60;0.60;;;;;;;32.06;29.06;99120.69;4957314;28;20154;-89
2023/08/31 08:30:12;;;;;;;1.20;0.75;;;;;;;32.15;29.30;99137.88;4951952;28;20134;-88
2023/08/31 08:32:38;;;;;;;2.00;0.70;;;;;;;31.66;29.31;99136.97;4958506;28;20110;-88
2023/08/31 08:35:04;;;;;;;0.88;0.70;;;;;;;31.94;29.30;99104.69;4970774;28;20046;-89
2023/08/31 08:37:31;;;;;;;1.00;0.80;;;;;;;31.92;30.04;99142.19;4957891;28;20494;-89
2023/08/31 08:39:57;;;;;;;1.85;0.35;;;;;;;32.27;28.72;99128.28;4969785;28;20031;-89
2023/08/31 08:42:25;;;;;;;2.30;1.73;;;;;;;32.59;30.43;99151.00;4950822;28;20032;-89
2023/08/31 08:44:50;;;;;;;1.83;1.17;;;;;;;32.37;29.08;99139.00;4951536;28;20110;-92
2023/08/31 08:47:18;;;;;;;0.73;0.50;;;;;;;31.95;28.42;99109.13;4937012;29;20032;-96
2023/08/31 08:49:46;;;;;;;1.15;0.50;;;;;;;32.64;29.26;99126.75;4939623;29;20055;-90
2023/08/31 08:52:13;;;;;;;2.20;0.90;;;;;;;32.88;28.64;99108.56;4949876;28;20042;-89
2023/08/31 08:54:41;;;;;;;1.13;0.60;;;;;;;33.19;29.55;99131.22;4952696;28;20118;-93
2023/08/31 08:57:07;;;;;;;2.88;1.77;;;;;;;33.29;27.61;99130.97;4954527;28;20036;-91
2023/08/31 08:59:32;;;;;;;0.80;0.55;;;;;;;33.09;28.07;99138.78;4954975;28;20120;-93
2023/08/31 09:01:58;;;;;;;1.60;0.50;;;;;;;33.02;27.57;99089.47;4954795;28;20058;-91
2023/08/31 09:04:24;;;;;;;1.58;0.57;;;;;;;33.27;25.82;99099.41;4955329;28;20054;-89
2023/08/31 09:06:50;;;;;;;1.48;0.85;;;;;;;33.60;27.05;99123.69;4937269;29;20513;-92
2023/08/31 09:09:21;;;;;;;3.60;0.85;;;;;;;33.80;26.56;99137.69;4955698;29;20074;-93
2023/08/31 09:11:46;;;;;;;0.77;0.45;;;;;;;33.52;28.12;99116.41;4974475;28;20039;-91
2023/08/31 09:14:17;;;;;;;1.60;0.70;;;;;;;33.27;28.30;99130.28;4975029;28;20174;-91
2023/08/31 09:16:47;;;;;;;0.73;0.47;;;;;;;33.20;28.89;99132.09;4957525;28;20027;-88
2023/08/31 09:19:24;;;;;;;1.17;0.90;;;;;;;33.51;27.86;99103.78;4956321;28;20035;-88
2023/08/31 09:21:51;;;;;;;0.43;0.20;;;;;;;33.50;27.12;99123.97;4973508;28;20035;-88
2023/08/31 09:24:18;;;;;;;1.92;1.15;;;;;;;33.47;27.16;99116.13;4955237;28;20420;-90
2023/08/31 09:26:44;;;;;;;0.73;0.40;;;;;;;33.37;27.70;99111.78;4974314;28;20483;-88
2023/08/31 09:29:10;;;;;;;1.83;0.85;;;;;;;33.10;25.94;99121.34;4974092;28;20109;-87
2023/08/31 09:32:04;;;;;;;0.73;0.45;;;;;;;33.30;26.78;99134.56;4975120;28;20122;-89
2023/08/31 09:34:33;;;;;;;0.73;0.68;;;;;;;33.18;28.55;99118.59;4964238;28;20030;-89
2023/08/31 09:37:06;;;;;;;1.33;0.90;;;;;;;33.04;27.78;99132.16;4972673;28;20029;-88
2023/08/31 09:39:39;;;;;;;1.67;0.50;;;;;;;32.99;29.98;99119.88;4973191;28;20137;-88
2023/08/31 09:42:05;;;;;;;0.77;0.63;;;;;;;33.16;27.51;99130.69;4971762;28;20093;-89
2023/08/31 09:44:30;;;;;;;0.95;0.68;;;;;;;33.15;28.05;99121.66;4970456;28;20039;-88
2023/08/31 09:46:56;;;;;;;0.65;0.57;;;;;;;33.08;28.94;99122.59;4969568;28;20501;-88
2023/08/31 09:49:23;;;;;;;0.90;0.68;;;;;;;33.18;28.90;99110.41;4970929;28;20035;-90
2023/08/31 09:51:50;;;;;;;1.95;1.02;;;;;;;33.40;26.20;99109.69;4971377;28;20101;-90
2023/08/31 09:54:17;;;;;;;1.23;0.80;;;;;;;33.46;26.03;99098.03;4972918;28;20082;-93
2023/08/31 09:56:44;;;;;;;0.55;0.47;;;;;;;33.18;26.92;99132.25;4973344;28;20049;-94
2023/08/31 09:59:10;;;;;;;0.20;0.20;;;;;;;33.17;26.78;99097.75;4957127;28;20057;-90
2023/08/31 10:01:36;;;;;;;0.77;0.55;;;;;;;33.54;26.10;99125.28;4955616;28;20413;-90
2023/08/31 10:04:02;;;;;;;0.47;0.47;;;;;;;33.50;25.62;99121.22;4972659;28;20035;-93
2023/08/31 10:06:29;;;;;;;3.08;1.50;;;;;;;33.19;27.46;99100.31;4955855;28;20575;-96
2023/08/31 10:09:05;;;;;;;1.48;0.52;;;;;;;33.15;25.42;99109.88;4966225;28;20047;-96
2023/08/31 10:11:32;;;;;;;0.25;0.25;;;;;;;33.60;26.12;99108.16;4966745;28;20406;-93
2023/08/31 10:14:04;;;;;;;2.08;0.90;;;;;;;33.53;25.05;99091.63;4977829;28;20230;-96
2023/08/31 10:16:30;;;;;;;0.40;0.30;;;;;;;33.54;25.32;99090.59;4956222;28;20063;-92
2023/08/31 10:18:57;;;;;;;2.47;0.75;;;;;;;33.56;25.53;99115.00;4947894;28;20069;-96
2023/08/31 10:21:24;;;;;;;1.02;0.47;;;;;;;32.87;26.25;99063.16;4999107;23;20735;-90
2023/08/31 10:23:52;;;;;;;2.53;0.77;;;;;;;33.17;26.77;99118.75;4995500;28;20026;-96
2023/08/31 10:26:31;;;;;;;1.48;0.70;;;;;;;33.33;26.64;99104.97;4975768;28;20096;-92
2023/08/31 10:28:58;;;;;;;1.30;0.73;;;;;;;33.44;25.77;99100.94;4960808;28;20041;-92
2023/08/31 10:31:28;;;;;;;0.52;0.32;;;;;;;33.62;25.90;99125.22;4974729;28;20040;-94
2023/08/31 10:34:05;;;;;;;2.60;0.52;;;;;;;33.39;27.10;99130.72;4970716;28;20414;-94
2023/08/31 10:36:39;;;;;;;2.17;0.98;;;;;;;33.53;26.83;99112.66;4964227;28;20043;-95
2023/08/31 10:39:13;;;;;;;1.70;0.70;;;;;;;33.58;25.71;99118.41;4961260;28;20049;-89
2023/08/31 10:41:39;;;;;;;1.77;0.50;;;;;;;33.52;26.16;99122.75;4982166;28;20054;-91
2023/08/31 10:44:32;;;;;;;1.35;0.63;;;;;;;33.50;26.31;99126.69;4967461;28;20556;-93
2023/08/31 10:47:04;;;;;;;1.52;0.95;;;;;;;33.24;28.37;99125.19;4988405;28;20093;-91
2023/08/31 10:49:32;;;;;;;3.35;1.75;;;;;;;33.19;28.55;99116.72;4990880;28;20042;-89
2023/08/31 10:52:19;;;;;;;0.60;0.57;;;;;;;33.24;27.98;99118.88;4991829;28;20026;-89
2023/08/31 10:54:46;;;;;;;1.15;0.38;;;;;;;32.93;27.59;99085.13;4992167;28;20058;-89
2023/08/31 10:57:14;;;;;;;5.18;1.05;;;;;;;32.93;28.31;99131.53;4992682;28;20041;-93
2023/08/31 10:59:51;;;;;;;0.77;0.52;;;;;;;32.78;30.20;99120.56;4975007;28;20121;-89
2023/08/31 11:02:35;;;;;;;1.10;0.70;;;;;;;32.97;30.82;99127.44;4992438;28;20042;-91
2023/08/31 11:05:07;;;;;;;1.00;0.50;;;;;;;33.03;28.87;99123.13;4974915;28;20030;-91
2023/08/31 11:07:36;;;;;;;0.32;0.30;;;;;;;32.80;28.83;99117.66;4992018;28;20045;-92
2023/08/31 11:10:14;;;;;;;2.92;0.73;;;;;;;32.85;29.30;99090.66;4992683;28;20037;-91
2023/08/31 11:12:41;;;;;;;1.70;1.05;;;;;;;32.42;28.26;99106.56;4974707;28;20400;-90
2023/08/31 11:15:07;;;;;;;5.18;0.40;;;;;;;32.11;29.66;99083.69;4992409;28;20034;-90
2023/08/31 11:17:34;;;;;;;1.50;0.70;;;;;;;32.29;29.63;99091.63;4992039;28;20041;-92
2023/08/31 11:20:01;;;;;;;0.90;0.73;;;;;;;32.51;29.07;99116.41;4974710;28;20065;-92
2023/08/31 11:22:27;;;;;;;0.93;0.68;;;;;;;32.60;29.10;99129.00;4991462;28;20137;-91
2023/08/31 11:24:53;;;;;;;2.05;1.20;;;;;;;32.64;29.71;99111.28;4992278;28;20058;-91
2023/08/31 11:27:22;;;;;;;6.47;1.38;;;;;;;33.01;28.34;99117.84;4991304;28;20073;-92
2023/08/31 11:29:48;;;;;;;1.35;0.85;;;;;;;32.92;28.37;99118.06;4974409;28;20512;-89
2023/08/31 11:32:13;;;;;;;1.83;0.70;;;;;;;32.82;29.18;99104.66;4992175;28;20110;-90
2023/08/31 11:34:45;;;;;;;9.75;1.95;;;;;;;32.35;28.79;99064.66;4992101;28;20157;-92
2023/08/31 11:37:16;;;;;;;2.45;0.65;;;;;;;32.37;30.79;99118.03;4992435;28;20041;-92
2023/08/31 11:39:51;;;;;;;1.30;0.82;;;;;;;32.41;31.04;99119.38;4996369;28;20033;-94
2023/08/31 11:42:20;;;;;;;0.43;0.43;;;;;;;32.09;30.80;99090.34;4978815;28;20485;-95
2023/08/31 11:44:50;;;;;;;0.40;0.40;;;;;;;32.23;30.71;99105.97;4973959;28;20027;-92
2023/08/31 11:47:17;;;;;;;1.10;0.50;;;;;;;32.37;29.80;99126.22;4970454;28;20034;-94
2023/08/31 11:49:44;;;;;;;1.42;0.65;;;;;;;32.48;31.61;99114.03;4972865;28;20056;-94
2023/08/31 11:52:11;;;;;;;2.63;1.50;;;;;;;32.45;29.00;99068.00;4973487;28;20018;-95
2023/08/31 11:54:38;;;;;;;2.50;0.75;;;;;;;33.03;29.09;99120.41;4973210;28;20453;-92
2023/08/31 11:57:08;;;;;;;1.88;0.82;;;;;;;33.18;28.59;99106.78;4972690;28;20036;-93
2023/08/31 11:59:35;;;;;;;2.58;1.13;;;;;;;33.10;29.87;99090.47;4989920;28;20038;-91
2023/08/31 12:02:01;;;;;;;1.05;0.68;;;;;;;33.26;29.43;99101.28;4990911;28;20027;-91
2023/08/31 12:04:26;;;;;;;1.95;1.08;;;;;;;33.37;26.82;99097.25;4989885;28;20092;-93
2023/08/31 12:06:55;;;;;;;1.95;1.30;;;;;;;33.37;27.38;99110.94;4972528;28;20038;-92
2023/08/31 12:09:21;;;;;;;1.25;0.77;;;;;;;33.45;26.58;99113.56;4989881;28;20031;-92